Weather

Currently

Time Weather Temperature Precipitation Clouds Wind Wind Bumps Pressure
06:10 9,6 °C 9,3 °C 0,0 mm/h 95 % 0,3 m/s 1014,9 mb

Current values recorded by the weather station installed in the spa park. Data updated at 6:10.


Forecast

Time Weather Temperature Precipitation Clouds Wind Wind Bumps Pressure
03:00 10 °C 0,05 mm/h 100 % 0,9 m/s 2,7 m/s 1014 hPa
04:00 10 °C 0,05 mm/h 100 % 0,9 m/s 2 m/s 1013 hPa
05:00 9,9 °C 0,04 mm/h 100 % 0,6 m/s 1,9 m/s 1013 hPa
06:00 9,9 °C 0,04 mm/h 100 % 0,7 m/s 1,4 m/s 1013 hPa
07:00 9,8 °C 0,03 mm/h 100 % 0,2 m/s 1,3 m/s 1013 hPa
08:00 9,9 °C 0,03 mm/h 100 % 0,8 m/s 1,8 m/s 1013 hPa
09:00 10,4 °C 0,04 mm/h 100 % 1,2 m/s 3 m/s 1013 hPa
10:00 11,1 °C 0,03 mm/h 100 % 1 m/s 3 m/s 1013 hPa
11:00 11,4 °C 0,08 mm/h 100 % 0,3 m/s 2,5 m/s 1013 hPa
12:00 12,2 °C 0,03 mm/h 91 % 0,7 m/s 2,1 m/s 1012 hPa
13:00 13,1 °C 0 mm/h 87 % 1,3 m/s 3,3 m/s 1012 hPa
14:00 13,9 °C 0 mm/h 60 % 1,1 m/s 3,5 m/s 1011 hPa
15:00 14,9 °C 0 mm/h 39 % 1,2 m/s 3,2 m/s 1010 hPa
16:00 15,2 °C 0 mm/h 42 % 2,1 m/s 5 m/s 1010 hPa
17:00 13,2 °C 0,59 mm/h 100 % 1,6 m/s 6,2 m/s 1010 hPa
18:00 12,7 °C 0,03 mm/h 94 % 1,5 m/s 4,4 m/s 1009 hPa
19:00 12 °C 0,55 mm/h 100 % 2,2 m/s 4,9 m/s 1010 hPa
20:00 10,9 °C 0,05 mm/h 89 % 1 m/s 5 m/s 1009 hPa
21:00 10,6 °C 0 mm/h 77 % 2,1 m/s 4,3 m/s 1009 hPa
22:00 10,4 °C 0 mm/h 93 % 1,6 m/s 4,5 m/s 1009 hPa
23:00 9,9 °C 0 mm/h 91 % 0,5 m/s 2,9 m/s 1009 hPa

Forecast data of ČHMÚ (Czech hydrometeorological institute) based on Aladin numerical model for Konstantinovy Lázně area. The data is updated daily at 6:00.

Time Weather Temperature Precipitation Clouds Wind Wind Bumps Pressure
00:00 9,4 °C 0 mm/h 76 % 1 m/s 1,4 m/s 1009 hPa
01:00 9,3 °C 0 mm/h 89 % 1,5 m/s 2,9 m/s 1009 hPa
02:00 9,5 °C 0 mm/h 98 % 2,2 m/s 4,7 m/s 1009 hPa
03:00 9,7 °C 0,05 mm/h 99 % 2,1 m/s 5,7 m/s 1008 hPa
04:00 9,5 °C 0 mm/h 94 % 1,9 m/s 4,5 m/s 1008 hPa
05:00 9,4 °C 0,01 mm/h 100 % 2 m/s 4,4 m/s 1008 hPa
06:00 9,4 °C 0,14 mm/h 100 % 1,6 m/s 4,3 m/s 1008 hPa
07:00 9,6 °C 1,46 mm/h 100 % 3,1 m/s 7 m/s 1008 hPa
08:00 9 °C 0,46 mm/h 97 % 1,6 m/s 7 m/s 1008 hPa
09:00 9,5 °C 0 mm/h 65 % 2,2 m/s 5,2 m/s 1008 hPa
10:00 10,7 °C 0 mm/h 57 % 2,8 m/s 6,5 m/s 1008 hPa
11:00 11,4 °C 0 mm/h 79 % 3,2 m/s 7,3 m/s 1007 hPa
12:00 11,9 °C 0 mm/h 88 % 3,5 m/s 8,1 m/s 1007 hPa
13:00 12,1 °C 0 mm/h 96 % 3,3 m/s 8,7 m/s 1007 hPa
14:00 11,5 °C 0 mm/h 100 % 4,2 m/s 9,5 m/s 1007 hPa
15:00 9,8 °C 0,45 mm/h 100 % 2,6 m/s 9,5 m/s 1007 hPa
16:00 10,9 °C 0,02 mm/h 39 % 2,9 m/s 6,7 m/s 1006 hPa
17:00 11,2 °C 0 mm/h 25 % 3,3 m/s 7,6 m/s 1005 hPa
18:00 10,7 °C 0 mm/h 84 % 2,6 m/s 7,4 m/s 1005 hPa
19:00 10 °C 0,23 mm/h 100 % 2,4 m/s 5,7 m/s 1005 hPa
20:00 9,2 °C 0,21 mm/h 97 % 2,3 m/s 5,6 m/s 1005 hPa
21:00 8,4 °C 0 mm/h 68 % 1,8 m/s 4,9 m/s 1005 hPa
22:00 7,6 °C 0 mm/h 72 % 1,4 m/s 3,7 m/s 1005 hPa
23:00 7,1 °C 0 mm/h 51 % 1,6 m/s 3,2 m/s 1004 hPa

Forecast data of ČHMÚ (Czech hydrometeorological institute) based on Aladin numerical model for Konstantinovy Lázně area. The data is updated daily at 6:00.